Winton, California
Current Conditions -  °F | °C
As of 2:45 PM on Wednesday 17 Dec 2014 (Local Time) from KMER Reporting Station
Broken Clouds Broken Clouds  
Wind Chill: 61°   Ceiling: 9000
Heat Index: 61°   Visibility: 10mi
Dew Point: 50°   Wind: 0mph
Humidity: 68%   Direction: NA
Pressure: 30.07"   Gusts: NA
Location:  37.39°N, 120.61°W
Report Text: KMER 172245Z 00000KT 10SM SCT020 BKN090 16/10 A3007
Loading
Personal Weather Stations






























Interactive Weather Map New forecast layout! Learn more

10-Day Weather Forecast

Advertisements
Track Severe Weather on mobile